createdAt,value
2022-11-05T00:01:10.632Z,26.80
2022-11-05T00:03:38.822Z,26.80
2022-11-05T00:06:09.812Z,26.80
2022-11-05T00:08:38.064Z,26.80
2022-11-05T00:11:06.218Z,26.80
2022-11-05T00:13:34.537Z,26.80
2022-11-05T00:16:02.666Z,26.70
2022-11-05T00:18:30.787Z,26.80
2022-11-05T00:20:59.025Z,26.70
2022-11-05T00:23:27.624Z,26.80
2022-11-05T00:25:58.019Z,26.70
2022-11-05T00:28:28.110Z,26.70
2022-11-05T00:31:11.371Z,26.70
2022-11-05T00:33:40.810Z,26.70
2022-11-05T00:36:11.039Z,26.70
2022-11-05T00:38:39.342Z,26.70
2022-11-05T00:41:07.505Z,26.60
2022-11-05T00:43:35.828Z,26.60
2022-11-05T00:46:03.974Z,26.60
2022-11-05T00:48:32.414Z,26.60
2022-11-05T00:51:00.692Z,26.60
2022-11-05T00:53:29.200Z,26.50
2022-11-05T00:55:57.534Z,26.60
2022-11-05T00:58:25.684Z,26.60
2022-11-05T01:01:01.311Z,26.60
2022-11-05T01:03:33.169Z,26.50
2022-11-05T01:06:09.742Z,26.60
2022-11-05T01:08:39.011Z,26.60
2022-11-05T01:11:25.184Z,26.60
2022-11-05T01:13:53.338Z,26.60
2022-11-05T01:16:21.473Z,26.60
2022-11-05T01:18:49.730Z,26.60
2022-11-05T01:21:18.006Z,26.60
2022-11-05T01:23:46.057Z,26.60
2022-11-05T01:26:14.367Z,26.50
2022-11-05T01:28:42.587Z,26.60
2022-11-05T01:31:10.979Z,26.60
2022-11-05T01:33:39.448Z,26.50
2022-11-05T01:36:07.780Z,26.50
2022-11-05T01:38:36.574Z,26.50
2022-11-05T01:41:05.143Z,26.50
2022-11-05T01:43:58.944Z,26.50
2022-11-05T01:46:36.975Z,26.50
2022-11-05T01:49:21.282Z,26.50
2022-11-05T01:51:50.274Z,26.50
2022-11-05T01:54:24.598Z,26.40
2022-11-05T01:56:57.308Z,26.40
2022-11-05T01:59:35.513Z,26.40
2022-11-05T02:02:05.955Z,26.40
2022-11-05T02:04:45.232Z,26.40
2022-11-05T02:07:14.555Z,26.40
2022-11-05T02:10:05.900Z,26.40
2022-11-05T02:12:35.129Z,26.30
2022-11-05T02:15:03.320Z,26.30
2022-11-05T02:18:05.055Z,26.30
2022-11-05T02:21:12.742Z,26.30
2022-11-05T02:24:05.413Z,26.30
2022-11-05T02:26:51.097Z,26.30
2022-11-05T02:29:55.183Z,26.30
2022-11-05T02:32:41.667Z,26.20
2022-11-05T02:35:37.720Z,26.20
2022-11-05T02:38:18.488Z,26.20
2022-11-05T02:41:00.281Z,26.20
2022-11-05T02:43:51.719Z,26.20
2022-11-05T02:46:27.746Z,26.20
2022-11-05T02:49:18.547Z,26.20
2022-11-05T02:51:57.885Z,26.10
2022-11-05T02:54:36.153Z,26.20
2022-11-05T02:57:05.837Z,26.20
2022-11-05T02:59:34.221Z,26.20
2022-11-05T03:02:03.139Z,26.10
2022-11-05T03:04:31.984Z,26.20
2022-11-05T03:07:09.226Z,26.10
2022-11-05T03:09:49.553Z,26.10
2022-11-05T03:12:28.638Z,26.10
2022-11-05T03:15:32.273Z,26.10
2022-11-05T03:18:22.204Z,26.00
2022-11-05T03:21:01.872Z,26.00
2022-11-05T03:23:45.232Z,26.00
2022-11-05T03:26:21.704Z,26.00
2022-11-05T03:29:25.534Z,26.00
2022-11-05T03:31:57.932Z,26.00
2022-11-05T03:34:31.716Z,26.00
2022-11-05T03:37:01.484Z,26.00
2022-11-05T03:39:36.694Z,25.90
2022-11-05T03:42:07.924Z,25.90
2022-11-05T03:44:39.507Z,25.90
2022-11-05T03:47:13.984Z,25.90
2022-11-05T03:50:09.790Z,25.90
2022-11-05T03:52:45.993Z,25.90
2022-11-05T03:55:14.427Z,25.90
2022-11-05T03:57:46.827Z,25.90
2022-11-05T04:00:15.381Z,25.90
2022-11-05T04:02:43.519Z,25.90
2022-11-05T04:05:12.987Z,26.00
2022-11-05T04:07:40.998Z,25.90
2022-11-05T04:10:10.626Z,25.90
2022-11-05T04:12:38.867Z,25.90
2022-11-05T04:15:07.455Z,25.90
2022-11-05T04:17:35.659Z,25.90
2022-11-05T04:20:03.985Z,25.90
2022-11-05T04:22:34.373Z,25.80
2022-11-05T04:25:02.706Z,25.80
2022-11-05T04:27:30.834Z,25.90
2022-11-05T04:29:58.970Z,25.90
2022-11-05T04:32:27.202Z,25.80
2022-11-05T04:34:55.203Z,25.80
2022-11-05T04:37:23.752Z,25.80
2022-11-05T04:39:51.882Z,25.80
2022-11-05T04:42:20.019Z,25.70
2022-11-05T04:44:48.155Z,25.70
2022-11-05T04:47:16.419Z,25.70
2022-11-05T04:49:44.455Z,25.70
2022-11-05T04:52:12.585Z,25.60
2022-11-05T04:54:40.846Z,25.60
2022-11-05T04:57:09.425Z,25.60
2022-11-05T04:59:37.588Z,25.60
2022-11-05T05:02:05.881Z,25.60
2022-11-05T05:04:34.185Z,25.60
2022-11-05T05:07:02.547Z,25.60
2022-11-05T05:09:30.654Z,25.50
2022-11-05T05:11:59.062Z,25.60
2022-11-05T05:14:27.188Z,25.60
2022-11-05T05:16:55.427Z,25.60
2022-11-05T05:19:26.560Z,25.60
2022-11-05T05:21:54.706Z,25.60
2022-11-05T05:24:23.040Z,25.60
2022-11-05T05:26:52.135Z,25.60
2022-11-05T05:29:20.258Z,25.60
2022-11-05T05:31:48.482Z,25.60
2022-11-05T05:34:16.697Z,25.70
2022-11-05T05:36:44.953Z,25.60
2022-11-05T05:39:14.206Z,25.60
2022-11-05T05:41:42.234Z,25.60
2022-11-05T05:44:10.351Z,25.60
2022-11-05T05:46:38.521Z,25.60
2022-11-05T05:49:12.057Z,25.60
2022-11-05T05:51:41.317Z,25.60
2022-11-05T05:54:10.586Z,25.60
2022-11-05T05:56:38.715Z,25.60
2022-11-05T05:59:07.641Z,25.60
2022-11-05T06:01:35.961Z,25.50
2022-11-05T06:04:04.733Z,25.50
2022-11-05T06:06:32.942Z,25.60
2022-11-05T06:09:00.965Z,25.60
2022-11-05T06:11:29.213Z,25.60
2022-11-05T06:13:57.313Z,25.60
2022-11-05T06:16:28.438Z,25.50
2022-11-05T06:18:56.964Z,25.60
2022-11-05T06:21:25.131Z,25.60
2022-11-05T06:23:53.422Z,25.50
2022-11-05T06:26:21.565Z,25.50
2022-11-05T06:28:49.821Z,25.50
2022-11-05T06:31:17.960Z,25.50
2022-11-05T06:33:45.978Z,25.50
2022-11-05T06:36:16.862Z,25.50
2022-11-05T06:38:45.274Z,25.50
2022-11-05T06:41:13.283Z,25.60
2022-11-05T06:43:41.994Z,25.60
2022-11-05T06:46:11.903Z,25.60
2022-11-05T06:48:40.309Z,25.60
2022-11-05T06:51:09.867Z,25.60
2022-11-05T06:53:37.886Z,25.60
2022-11-05T06:56:07.938Z,25.60
2022-11-05T06:58:36.396Z,25.60
2022-11-05T07:01:09.820Z,25.70
2022-11-05T07:03:38.841Z,25.70
2022-11-05T07:06:08.096Z,25.70
2022-11-05T07:08:38.113Z,25.60
2022-11-05T07:11:06.688Z,25.70
2022-11-05T07:13:34.859Z,25.70
2022-11-05T07:16:03.069Z,25.70
2022-11-05T07:18:31.239Z,25.70
2022-11-05T07:21:00.726Z,25.70
2022-11-05T07:23:29.269Z,25.80
2022-11-05T07:25:57.384Z,25.80
2022-11-05T07:28:25.614Z,25.80
2022-11-05T07:30:53.708Z,25.90
2022-11-05T07:33:21.835Z,25.90
2022-11-05T07:38:45.246Z,25.90
2022-11-05T07:41:13.328Z,26.00
2022-11-05T07:43:41.509Z,26.10
2022-11-05T07:46:13.649Z,26.10
2022-11-05T07:48:42.289Z,26.20
2022-11-05T07:51:10.567Z,26.30
2022-11-05T07:53:42.511Z,26.30
2022-11-05T07:56:13.507Z,26.40
2022-11-05T07:58:41.654Z,26.50
2022-11-05T08:01:10.041Z,26.50
2022-11-05T08:03:38.563Z,26.60
2022-11-05T08:06:07.397Z,26.60
2022-11-05T08:08:35.751Z,26.70
2022-11-05T08:11:08.119Z,26.80
2022-11-05T08:13:37.715Z,26.80
2022-11-05T08:16:06.533Z,26.90
2022-11-05T08:18:34.823Z,27.10
2022-11-05T08:21:05.263Z,27.10
2022-11-05T08:23:33.533Z,27.10
2022-11-05T08:26:04.544Z,27.20
2022-11-05T08:28:33.006Z,27.30
2022-11-05T08:31:01.391Z,27.40
2022-11-05T08:33:29.691Z,27.40
2022-11-05T08:36:02.025Z,27.50
2022-11-05T08:38:30.219Z,27.50
2022-11-05T08:40:59.012Z,27.60
2022-11-05T08:43:27.306Z,27.70
2022-11-05T08:45:55.477Z,27.80
2022-11-05T08:48:23.689Z,27.80
2022-11-05T08:50:51.915Z,27.90
2022-11-05T08:53:20.215Z,27.90
2022-11-05T08:55:48.431Z,27.90
2022-11-05T08:58:17.531Z,27.90
2022-11-05T09:00:48.372Z,27.90
2022-11-05T09:03:17.304Z,27.90
2022-11-05T09:05:45.542Z,27.90
2022-11-05T09:08:21.177Z,27.90
2022-11-05T09:10:49.333Z,27.90
2022-11-05T09:13:19.783Z,27.90
2022-11-05T09:15:49.580Z,27.90
2022-11-05T09:18:19.053Z,28.10
2022-11-05T09:20:47.589Z,28.10
2022-11-05T09:23:15.980Z,28.10
2022-11-05T09:25:45.277Z,28.00
2022-11-05T09:28:18.873Z,28.00
2022-11-05T09:30:49.590Z,28.00
2022-11-05T09:33:22.847Z,28.10
2022-11-05T09:35:51.226Z,28.20
2022-11-05T09:38:19.732Z,28.30
2022-11-05T09:41:02.830Z,28.40
2022-11-05T09:44:03.096Z,28.50
2022-11-05T09:46:42.284Z,28.70
2022-11-05T09:49:28.359Z,28.80
2022-11-05T09:51:58.639Z,28.90
2022-11-05T09:54:30.314Z,28.90
2022-11-05T09:57:00.928Z,28.90
2022-11-05T09:59:37.764Z,29.00
2022-11-05T10:02:31.093Z,29.00
2022-11-05T10:05:09.083Z,29.20
2022-11-05T10:08:07.687Z,29.20
2022-11-05T10:10:43.054Z,29.20
2022-11-05T10:13:23.906Z,29.20
2022-11-05T10:16:07.955Z,29.10
2022-11-05T10:18:40.476Z,29.00
2022-11-05T10:21:13.975Z,28.90
2022-11-05T10:23:43.346Z,28.90
2022-11-05T10:26:26.423Z,28.90
2022-11-05T10:28:55.385Z,28.90
2022-11-05T10:31:24.783Z,28.90
2022-11-05T10:33:57.324Z,28.80
2022-11-05T10:36:29.333Z,28.70
2022-11-05T10:39:00.381Z,28.60
2022-11-05T10:41:40.811Z,28.60
2022-11-05T10:44:20.689Z,28.40
2022-11-05T10:46:58.523Z,28.30
2022-11-05T10:49:40.079Z,28.20
2022-11-05T10:52:39.879Z,28.30
2022-11-05T10:55:25.961Z,28.20
2022-11-05T10:57:54.491Z,28.20
2022-11-05T11:00:25.762Z,28.20
2022-11-05T11:03:00.010Z,28.20
2022-11-05T11:05:29.953Z,28.20
2022-11-05T11:08:06.072Z,28.10
2022-11-05T11:10:41.387Z,28.10
2022-11-05T11:13:24.943Z,28.10
2022-11-05T11:15:53.611Z,28.10
2022-11-05T11:18:26.036Z,28.00
2022-11-05T11:20:54.285Z,28.10
2022-11-05T11:23:22.405Z,28.10
2022-11-05T11:26:02.298Z,28.10
2022-11-05T11:28:44.510Z,28.10
2022-11-05T11:31:17.120Z,28.10
2022-11-05T11:33:49.917Z,28.30
2022-11-05T11:36:24.869Z,28.50
2022-11-05T11:39:00.645Z,28.70
2022-11-05T11:41:38.326Z,28.90
2022-11-05T11:44:16.837Z,28.90
2022-11-05T11:46:50.223Z,29.00
2022-11-05T11:49:47.874Z,28.90
2022-11-05T11:52:37.180Z,29.00
2022-11-05T11:55:14.614Z,29.10
2022-11-05T11:58:06.844Z,29.10
2022-11-05T12:00:42.432Z,28.90
2022-11-05T12:03:19.723Z,29.00
2022-11-05T12:06:27.191Z,29.00
2022-11-05T12:09:10.758Z,28.80
2022-11-05T12:11:59.543Z,28.90
2022-11-05T12:14:46.749Z,28.80
2022-11-05T12:17:50.464Z,28.80
2022-11-05T12:20:42.879Z,28.80
2022-11-05T12:23:14.224Z,28.80
2022-11-05T12:25:54.590Z,28.90
2022-11-05T12:29:04.783Z,28.90
2022-11-05T12:31:41.262Z,29.00
2022-11-05T12:34:32.919Z,28.90
2022-11-05T12:37:19.614Z,28.70
2022-11-05T12:40:28.977Z,28.70
2022-11-05T12:43:11.888Z,28.70
2022-11-05T12:45:50.087Z,28.60
2022-11-05T12:48:56.228Z,28.60
2022-11-05T12:51:54.961Z,28.70
2022-11-05T12:54:37.188Z,28.80
2022-11-05T12:57:06.228Z,29.20
2022-11-05T12:59:40.653Z,29.50
2022-11-05T13:02:27.483Z,29.60
2022-11-05T13:05:31.183Z,29.70
2022-11-05T13:08:08.824Z,29.80
2022-11-05T13:10:55.701Z,29.90
2022-11-05T13:13:39.196Z,29.90
2022-11-05T13:16:17.732Z,30.00
2022-11-05T13:18:56.773Z,29.90
2022-11-05T13:21:27.260Z,29.60
2022-11-05T13:24:17.006Z,29.50
2022-11-05T13:26:54.280Z,29.40
2022-11-05T13:29:32.289Z,29.20
2022-11-05T13:32:21.866Z,29.10
2022-11-05T13:34:50.198Z,29.10
2022-11-05T13:37:29.116Z,29.20
2022-11-05T13:40:04.211Z,29.20
2022-11-05T13:42:50.749Z,29.30
2022-11-05T13:46:04.445Z,29.30
2022-11-05T13:48:44.552Z,29.40
2022-11-05T13:51:27.278Z,29.50
2022-11-05T13:54:04.733Z,29.80
2022-11-05T13:57:10.758Z,29.80
2022-11-05T14:00:00.208Z,30.00
2022-11-05T14:02:44.010Z,29.90
2022-11-05T14:05:43.758Z,29.90
2022-11-05T14:08:21.202Z,29.80
2022-11-05T14:11:17.166Z,29.60
2022-11-05T14:13:46.844Z,29.50
2022-11-05T14:16:24.011Z,29.40
2022-11-05T14:19:15.708Z,29.30
2022-11-05T14:21:50.209Z,29.30
2022-11-05T14:24:24.668Z,29.40
2022-11-05T14:27:01.647Z,29.30
2022-11-05T14:29:38.834Z,29.40
2022-11-05T14:32:19.271Z,29.60
2022-11-05T14:34:53.719Z,29.80
2022-11-05T14:37:24.100Z,30.00
2022-11-05T14:39:54.626Z,30.20
2022-11-05T14:42:41.235Z,30.50
2022-11-05T14:45:26.562Z,30.50
2022-11-05T14:48:06.200Z,30.60
2022-11-05T14:50:43.343Z,31.00
2022-11-05T14:53:33.414Z,30.90
2022-11-05T14:56:06.665Z,30.50
2022-11-05T14:58:37.479Z,30.20
2022-11-05T15:01:16.453Z,30.10
2022-11-05T15:04:00.679Z,30.00
2022-11-05T15:06:35.295Z,30.20
2022-11-05T15:09:26.030Z,30.40
2022-11-05T15:11:57.054Z,30.70
2022-11-05T15:14:54.853Z,31.10
2022-11-05T15:17:38.061Z,31.50
2022-11-05T15:20:18.125Z,31.70
2022-11-05T15:22:52.158Z,31.40
2022-11-05T15:25:53.115Z,31.40
2022-11-05T15:28:38.355Z,31.80
2022-11-05T15:31:24.210Z,32.10
2022-11-05T15:33:52.475Z,32.30
2022-11-05T15:36:31.187Z,32.30
2022-11-05T15:39:28.072Z,32.60
2022-11-05T15:41:48.129Z,33.00
2022-11-05T15:44:27.861Z,33.00
2022-11-05T15:47:16.026Z,33.00
2022-11-05T15:49:48.135Z,33.30
2022-11-05T15:52:18.372Z,33.60
2022-11-05T15:54:46.811Z,33.80
2022-11-05T15:57:28.127Z,33.90
2022-11-05T15:59:56.446Z,34.00
2022-11-05T16:02:43.912Z,33.90
2022-11-05T16:05:14.245Z,34.20
2022-11-05T16:07:44.996Z,34.10
2022-11-05T16:10:25.818Z,34.10
2022-11-05T16:12:54.098Z,34.00
2022-11-05T16:15:25.172Z,34.20
2022-11-05T16:17:58.276Z,34.40
2022-11-05T16:20:28.564Z,34.10
2022-11-05T16:23:03.019Z,34.30
2022-11-05T16:25:37.768Z,34.60
2022-11-05T16:28:30.098Z,34.90
2022-11-05T16:31:04.745Z,34.70
2022-11-05T16:33:45.855Z,34.70
2022-11-05T16:36:14.054Z,34.80
2022-11-05T16:38:42.347Z,34.70
2022-11-05T16:41:21.430Z,34.80
2022-11-05T16:44:00.529Z,34.80
2022-11-05T16:46:30.331Z,34.30
2022-11-05T16:48:58.524Z,34.40
2022-11-05T16:51:28.957Z,34.30
2022-11-05T16:53:57.128Z,33.90
2022-11-05T16:56:25.317Z,33.80
2022-11-05T16:58:53.473Z,33.50
2022-11-05T17:01:23.421Z,33.50
2022-11-05T17:03:53.657Z,33.00
2022-11-05T17:06:22.786Z,32.70
2022-11-05T17:08:51.271Z,32.40
2022-11-05T17:11:21.878Z,31.90
2022-11-05T17:13:50.039Z,31.90
2022-11-05T17:16:19.186Z,31.70
2022-11-05T17:18:47.433Z,31.80
2022-11-05T17:21:15.500Z,31.90
2022-11-05T17:23:43.847Z,31.90
2022-11-05T17:26:13.983Z,31.80
2022-11-05T17:28:42.298Z,31.70
2022-11-05T17:31:13.966Z,31.40
2022-11-05T17:33:42.416Z,31.20
2022-11-05T17:36:14.426Z,30.90
2022-11-05T17:38:43.368Z,30.60
2022-11-05T17:41:13.401Z,30.60
2022-11-05T17:43:42.101Z,30.50
2022-11-05T17:46:12.523Z,30.30
2022-11-05T17:48:41.582Z,30.20
2022-11-05T17:51:14.901Z,30.20
2022-11-05T17:53:43.857Z,30.10
2022-11-05T17:56:13.854Z,29.90
2022-11-05T17:58:42.298Z,29.90
2022-11-05T18:01:28.342Z,29.90
2022-11-05T18:03:57.131Z,29.80
2022-11-05T18:06:25.378Z,29.60
2022-11-05T18:08:53.812Z,29.50
2022-11-05T18:11:22.065Z,29.50
2022-11-05T18:13:50.158Z,29.40
2022-11-05T18:16:18.415Z,29.30
2022-11-05T18:18:46.485Z,29.20
2022-11-05T18:21:15.350Z,29.20
2022-11-05T18:23:43.735Z,29.00
2022-11-05T18:26:13.783Z,28.90
2022-11-05T18:28:43.285Z,28.80
2022-11-05T18:31:18.430Z,28.80
2022-11-05T18:33:51.473Z,28.80
2022-11-05T18:36:27.614Z,28.70
2022-11-05T18:38:57.505Z,28.70
2022-11-05T18:41:26.103Z,28.60
2022-11-05T18:43:58.393Z,28.60
2022-11-05T18:46:55.827Z,28.50
2022-11-05T18:49:14.855Z,28.50
2022-11-05T18:51:42.894Z,28.40
2022-11-05T18:54:11.087Z,28.40
2022-11-05T18:56:39.327Z,28.50
2022-11-05T18:59:35.254Z,28.40
2022-11-05T19:01:55.848Z,28.30
2022-11-05T19:04:24.153Z,28.30
2022-11-05T19:06:52.213Z,28.20
2022-11-05T19:09:20.493Z,28.20
2022-11-05T19:11:48.575Z,28.10
2022-11-05T19:14:16.753Z,28.10
2022-11-05T19:16:44.902Z,28.10
2022-11-05T19:19:14.839Z,28.10
2022-11-05T19:21:43.005Z,28.20
2022-11-05T19:24:16.808Z,28.20
2022-11-05T19:26:45.199Z,28.10
2022-11-05T19:29:13.548Z,28.10
2022-11-05T19:31:42.069Z,28.10
2022-11-05T19:34:10.218Z,28.10
2022-11-05T19:36:38.481Z,28.10
2022-11-05T19:39:08.659Z,28.10
2022-11-05T19:41:40.126Z,28.10
2022-11-05T19:44:08.665Z,28.10
2022-11-05T19:46:36.687Z,28.10
2022-11-05T19:49:05.399Z,28.10
2022-11-05T19:51:34.174Z,28.10
2022-11-05T19:54:04.073Z,28.10
2022-11-05T19:56:34.626Z,28.20
2022-11-05T19:59:03.721Z,28.10
2022-11-05T20:01:32.287Z,28.10
2022-11-05T20:04:01.508Z,28.10
2022-11-05T20:06:33.213Z,28.10
2022-11-05T20:11:55.512Z,28.10
2022-11-05T20:14:25.164Z,28.10
2022-11-05T20:16:54.080Z,28.10
2022-11-05T20:19:23.895Z,28.10
2022-11-05T20:21:52.197Z,28.00
2022-11-05T20:26:46.321Z,28.00
2022-11-05T20:29:14.480Z,28.00
2022-11-05T20:31:42.665Z,28.00
2022-11-05T20:34:10.876Z,28.00
2022-11-05T20:36:40.140Z,28.00
2022-11-05T20:39:08.850Z,28.00
2022-11-05T20:41:37.328Z,27.90
2022-11-05T20:44:05.566Z,27.90
2022-11-05T20:46:33.779Z,28.00
2022-11-05T20:49:02.097Z,27.90
2022-11-05T20:51:30.352Z,27.90
2022-11-05T20:54:01.095Z,28.00
2022-11-05T20:56:33.177Z,27.90
2022-11-05T20:59:01.563Z,27.90
2022-11-05T21:01:32.232Z,27.90
2022-11-05T21:04:00.646Z,27.90
2022-11-05T21:06:29.158Z,27.80
2022-11-05T21:09:00.202Z,27.80
2022-11-05T21:11:28.737Z,27.80
2022-11-05T21:13:56.928Z,27.80
2022-11-05T21:16:25.054Z,27.80
2022-11-05T21:18:53.233Z,27.80
2022-11-05T21:21:21.805Z,27.80
2022-11-05T21:23:49.903Z,27.80
2022-11-05T21:26:18.289Z,27.80
2022-11-05T21:28:46.493Z,27.80
2022-11-05T21:31:16.343Z,27.80
2022-11-05T21:33:44.573Z,27.90
2022-11-05T21:36:14.017Z,27.80
2022-11-05T21:38:42.511Z,27.80
2022-11-05T21:41:11.825Z,27.80
2022-11-05T21:43:40.997Z,27.80
2022-11-05T21:46:12.651Z,27.80
2022-11-05T21:48:41.549Z,27.80
2022-11-05T21:51:12.054Z,27.70
2022-11-05T21:53:41.090Z,27.50
2022-11-05T21:56:21.295Z,27.50
2022-11-05T21:58:49.782Z,27.40
2022-11-05T22:01:18.502Z,27.40
2022-11-05T22:03:46.795Z,27.40
2022-11-05T22:06:14.941Z,27.20
2022-11-05T22:08:43.198Z,27.00
2022-11-05T22:11:11.463Z,26.80
2022-11-05T22:13:39.581Z,26.90
2022-11-05T22:16:08.202Z,26.80
2022-11-05T22:18:36.461Z,26.80
2022-11-05T22:21:04.710Z,26.60
2022-11-05T22:23:32.933Z,26.50
2022-11-05T22:26:02.638Z,26.50
2022-11-05T22:28:30.763Z,26.40
2022-11-05T22:30:58.815Z,26.40
2022-11-05T22:33:27.107Z,26.40
2022-11-05T22:35:55.152Z,26.40
2022-11-05T22:38:23.450Z,26.40
2022-11-05T22:40:51.691Z,26.50
2022-11-05T22:43:19.806Z,26.50
2022-11-05T22:45:48.009Z,26.60
2022-11-05T22:48:16.796Z,26.60
2022-11-05T22:50:45.141Z,26.60
2022-11-05T22:53:13.210Z,26.70
2022-11-05T22:55:41.525Z,26.70
2022-11-05T22:58:09.868Z,26.70
2022-11-05T23:00:39.201Z,26.70
2022-11-05T23:03:07.713Z,26.70
2022-11-05T23:05:35.972Z,26.80
2022-11-05T23:08:04.547Z,26.80
2022-11-05T23:10:34.197Z,26.80
2022-11-05T23:13:02.315Z,26.80
2022-11-05T23:15:30.577Z,26.90
2022-11-05T23:17:58.863Z,26.80
2022-11-05T23:20:27.096Z,26.80
2022-11-05T23:22:55.295Z,26.80
2022-11-05T23:25:24.603Z,26.80
2022-11-05T23:27:54.813Z,26.80
2022-11-05T23:30:28.550Z,26.80
2022-11-05T23:32:57.412Z,26.70
2022-11-05T23:35:25.714Z,26.70
2022-11-05T23:37:53.868Z,26.70
2022-11-05T23:40:25.483Z,26.70
2022-11-05T23:42:54.034Z,26.80
2022-11-05T23:45:22.509Z,26.80
2022-11-05T23:47:50.854Z,26.80
2022-11-05T23:50:19.131Z,26.70
2022-11-05T23:52:47.210Z,26.60
2022-11-05T23:55:15.477Z,26.60
2022-11-05T23:57:43.719Z,26.40
